sensor_id;sensor_type;location;lat;lon;timestamp;temperature;humidity
14140;DHT22;7150;53.514;9.988;2024-02-21T00:00:12;11.70;99.90
14140;DHT22;7150;53.514;9.988;2024-02-21T00:02:38;11.70;99.90
14140;DHT22;7150;53.514;9.988;2024-02-21T00:05:04;11.70;99.90
14140;DHT22;7150;53.514;9.988;2024-02-21T00:07:29;11.70;99.90
14140;DHT22;7150;53.514;9.988;2024-02-21T00:09:55;11.70;99.90
14140;DHT22;7150;53.514;9.988;2024-02-21T00:12:20;11.80;99.90
14140;DHT22;7150;53.514;9.988;2024-02-21T00:14:46;11.70;99.90
14140;DHT22;7150;53.514;9.988;2024-02-21T00:17:11;11.60;99.90
14140;DHT22;7150;53.514;9.988;2024-02-21T00:19:37;11.60;99.90
14140;DHT22;7150;53.514;9.988;2024-02-21T00:22:03;11.60;99.90
14140;DHT22;7150;53.514;9.988;2024-02-21T00:24:29;11.50;99.90
14140;DHT22;7150;53.514;9.988;2024-02-21T00:26:54;11.50;99.90
14140;DHT22;7150;53.514;9.988;2024-02-21T00:29:20;11.50;99.90
14140;DHT22;7150;53.514;9.988;2024-02-21T00:31:45;11.50;99.90
14140;DHT22;7150;53.514;9.988;2024-02-21T00:34:11;11.50;99.90
14140;DHT22;7150;53.514;9.988;2024-02-21T00:36:38;11.50;99.90
14140;DHT22;7150;53.514;9.988;2024-02-21T00:39:03;11.50;99.90
14140;DHT22;7150;53.514;9.988;2024-02-21T00:41:29;11.50;99.90
14140;DHT22;7150;53.514;9.988;2024-02-21T00:43:55;11.50;99.90
14140;DHT22;7150;53.514;9.988;2024-02-21T00:46:20;11.50;99.90
14140;DHT22;7150;53.514;9.988;2024-02-21T00:48:46;11.50;99.90
14140;DHT22;7150;53.514;9.988;2024-02-21T00:51:11;11.50;99.90
14140;DHT22;7150;53.514;9.988;2024-02-21T00:53:36;11.50;99.90
14140;DHT22;7150;53.514;9.988;2024-02-21T00:56:07;11.50;99.90
14140;DHT22;7150;53.514;9.988;2024-02-21T00:58:32;11.40;99.90
14140;DHT22;7150;53.514;9.988;2024-02-21T01:00:58;11.50;99.90
14140;DHT22;7150;53.514;9.988;2024-02-21T01:03:23;11.50;99.90
14140;DHT22;7150;53.514;9.988;2024-02-21T01:05:49;11.50;99.90
14140;DHT22;7150;53.514;9.988;2024-02-21T01:08:14;11.40;99.90
14140;DHT22;7150;53.514;9.988;2024-02-21T01:10:40;11.40;99.90
14140;DHT22;7150;53.514;9.988;2024-02-21T01:13:05;11.40;99.90
14140;DHT22;7150;53.514;9.988;2024-02-21T01:15:32;11.40;99.90
14140;DHT22;7150;53.514;9.988;2024-02-21T01:17:58;11.40;99.90
14140;DHT22;7150;53.514;9.988;2024-02-21T01:20:23;11.30;99.90
14140;DHT22;7150;53.514;9.988;2024-02-21T01:22:49;11.50;99.90
14140;DHT22;7150;53.514;9.988;2024-02-21T01:25:14;11.40;99.90
14140;DHT22;7150;53.514;9.988;2024-02-21T01:27:40;11.40;99.90
14140;DHT22;7150;53.514;9.988;2024-02-21T01:30:06;11.40;99.90
14140;DHT22;7150;53.514;9.988;2024-02-21T01:32:32;11.30;99.90
14140;DHT22;7150;53.514;9.988;2024-02-21T01:34:58;11.30;99.90
14140;DHT22;7150;53.514;9.988;2024-02-21T01:37:23;11.40;99.90
14140;DHT22;7150;53.514;9.988;2024-02-21T01:39:49;11.40;99.90
14140;DHT22;7150;53.514;9.988;2024-02-21T01:42:14;11.40;99.90
14140;DHT22;7150;53.514;9.988;2024-02-21T01:44:40;11.40;99.90
14140;DHT22;7150;53.514;9.988;2024-02-21T01:47:06;11.40;99.90
14140;DHT22;7150;53.514;9.988;2024-02-21T01:49:33;11.40;99.90
14140;DHT22;7150;53.514;9.988;2024-02-21T01:51:59;11.40;99.90
14140;DHT22;7150;53.514;9.988;2024-02-21T01:54:25;11.40;99.90
14140;DHT22;7150;53.514;9.988;2024-02-21T01:56:51;11.40;99.90
14140;DHT22;7150;53.514;9.988;2024-02-21T01:59:18;11.40;99.90
14140;DHT22;7150;53.514;9.988;2024-02-21T02:01:45;11.40;99.90
14140;DHT22;7150;53.514;9.988;2024-02-21T02:04:11;11.40;99.90
14140;DHT22;7150;53.514;9.988;2024-02-21T02:06:37;11.30;99.90
14140;DHT22;7150;53.514;9.988;2024-02-21T02:09:03;11.30;99.90
14140;DHT22;7150;53.514;9.988;2024-02-21T02:11:28;11.30;99.90
14140;DHT22;7150;53.514;9.988;2024-02-21T02:13:54;11.40;99.90
14140;DHT22;7150;53.514;9.988;2024-02-21T02:16:19;11.40;99.90
14140;DHT22;7150;53.514;9.988;2024-02-21T02:18:45;11.30;99.90
14140;DHT22;7150;53.514;9.988;2024-02-21T02:21:15;11.30;99.90
14140;DHT22;7150;53.514;9.988;2024-02-21T02:23:47;11.40;99.90
14140;DHT22;7150;53.514;9.988;2024-02-21T02:26:12;11.40;99.90
14140;DHT22;7150;53.514;9.988;2024-02-21T02:28:38;11.40;99.90
14140;DHT22;7150;53.514;9.988;2024-02-21T02:31:03;11.40;99.90
14140;DHT22;7150;53.514;9.988;2024-02-21T02:33:29;11.40;99.90
14140;DHT22;7150;53.514;9.988;2024-02-21T02:35:54;11.40;99.90
14140;DHT22;7150;53.514;9.988;2024-02-21T02:38:19;11.40;99.90
14140;DHT22;7150;53.514;9.988;2024-02-21T02:40:45;11.50;99.90
14140;DHT22;7150;53.514;9.988;2024-02-21T02:43:10;11.40;99.90
14140;DHT22;7150;53.514;9.988;2024-02-21T02:45:36;11.50;99.90
14140;DHT22;7150;53.514;9.988;2024-02-21T02:48:02;11.50;99.90
14140;DHT22;7150;53.514;9.988;2024-02-21T02:50:28;11.50;99.90
14140;DHT22;7150;53.514;9.988;2024-02-21T02:52:54;11.50;99.90
14140;DHT22;7150;53.514;9.988;2024-02-21T02:55:19;11.30;99.90
14140;DHT22;7150;53.514;9.988;2024-02-21T02:57:45;11.50;99.90
14140;DHT22;7150;53.514;9.988;2024-02-21T03:00:11;11.50;99.90
14140;DHT22;7150;53.514;9.988;2024-02-21T03:02:38;11.50;99.90
14140;DHT22;7150;53.514;9.988;2024-02-21T03:05:12;11.50;99.90
14140;DHT22;7150;53.514;9.988;2024-02-21T03:07:38;11.50;99.90
14140;DHT22;7150;53.514;9.988;2024-02-21T03:10:04;11.50;99.90
14140;DHT22;7150;53.514;9.988;2024-02-21T03:12:30;11.50;99.90
14140;DHT22;7150;53.514;9.988;2024-02-21T03:14:55;11.50;99.90
14140;DHT22;7150;53.514;9.988;2024-02-21T03:17:21;11.50;99.90
14140;DHT22;7150;53.514;9.988;2024-02-21T03:19:47;11.50;99.90
14140;DHT22;7150;53.514;9.988;2024-02-21T03:22:13;11.60;99.90
14140;DHT22;7150;53.514;9.988;2024-02-21T03:24:39;11.40;99.90
14140;DHT22;7150;53.514;9.988;2024-02-21T03:27:04;11.40;99.90
14140;DHT22;7150;53.514;9.988;2024-02-21T03:29:30;11.40;99.90
14140;DHT22;7150;53.514;9.988;2024-02-21T03:31:55;11.50;99.90
14140;DHT22;7150;53.514;9.988;2024-02-21T03:34:21;11.50;99.90
14140;DHT22;7150;53.514;9.988;2024-02-21T03:36:46;11.40;99.90
14140;DHT22;7150;53.514;9.988;2024-02-21T03:39:12;11.40;99.90
14140;DHT22;7150;53.514;9.988;2024-02-21T03:41:37;11.40;99.90
14140;DHT22;7150;53.514;9.988;2024-02-21T03:44:03;11.30;99.90
14140;DHT22;7150;53.514;9.988;2024-02-21T03:46:28;11.30;99.90
14140;DHT22;7150;53.514;9.988;2024-02-21T03:48:54;11.30;99.90
14140;DHT22;7150;53.514;9.988;2024-02-21T03:51:19;11.30;99.90
14140;DHT22;7150;53.514;9.988;2024-02-21T03:53:45;11.30;99.90
14140;DHT22;7150;53.514;9.988;2024-02-21T03:56:10;11.40;99.90
14140;DHT22;7150;53.514;9.988;2024-02-21T03:58:36;11.40;99.90
14140;DHT22;7150;53.514;9.988;2024-02-21T04:01:02;11.30;99.90
14140;DHT22;7150;53.514;9.988;2024-02-21T04:03:28;11.40;99.90
14140;DHT22;7150;53.514;9.988;2024-02-21T04:05:53;11.40;99.90
14140;DHT22;7150;53.514;9.988;2024-02-21T04:08:19;11.30;99.90
14140;DHT22;7150;53.514;9.988;2024-02-21T04:10:44;11.30;99.90
14140;DHT22;7150;53.514;9.988;2024-02-21T04:13:10;11.40;99.90
14140;DHT22;7150;53.514;9.988;2024-02-21T04:15:35;11.30;99.90
14140;DHT22;7150;53.514;9.988;2024-02-21T04:18:01;11.40;99.90
14140;DHT22;7150;53.514;9.988;2024-02-21T04:20:28;11.30;99.90
14140;DHT22;7150;53.514;9.988;2024-02-21T04:22:54;11.30;99.90
14140;DHT22;7150;53.514;9.988;2024-02-21T04:25:19;11.20;99.90
14140;DHT22;7150;53.514;9.988;2024-02-21T04:27:45;11.20;99.90
14140;DHT22;7150;53.514;9.988;2024-02-21T04:30:11;11.20;99.90
14140;DHT22;7150;53.514;9.988;2024-02-21T04:32:37;11.10;99.90
14140;DHT22;7150;53.514;9.988;2024-02-21T04:35:03;11.20;99.90
14140;DHT22;7150;53.514;9.988;2024-02-21T04:37:28;11.10;99.90
14140;DHT22;7150;53.514;9.988;2024-02-21T04:39:54;11.10;99.90
14140;DHT22;7150;53.514;9.988;2024-02-21T04:42:19;11.20;99.90
14140;DHT22;7150;53.514;9.988;2024-02-21T04:44:45;11.10;99.90
14140;DHT22;7150;53.514;9.988;2024-02-21T04:47:10;11.10;99.90
14140;DHT22;7150;53.514;9.988;2024-02-21T04:49:36;11.20;99.90
14140;DHT22;7150;53.514;9.988;2024-02-21T04:52:01;11.10;99.90
14140;DHT22;7150;53.514;9.988;2024-02-21T04:54:27;11.20;99.90
14140;DHT22;7150;53.514;9.988;2024-02-21T04:56:53;11.20;99.90
14140;DHT22;7150;53.514;9.988;2024-02-21T04:59:18;11.10;99.90
14140;DHT22;7150;53.514;9.988;2024-02-21T05:01:44;11.10;99.90
14140;DHT22;7150;53.514;9.988;2024-02-21T05:04:09;11.10;99.90
14140;DHT22;7150;53.514;9.988;2024-02-21T05:06:38;11.10;99.90
14140;DHT22;7150;53.514;9.988;2024-02-21T05:09:04;11.10;99.90
14140;DHT22;7150;53.514;9.988;2024-02-21T05:11:30;11.00;99.90
14140;DHT22;7150;53.514;9.988;2024-02-21T05:13:56;11.00;99.90
14140;DHT22;7150;53.514;9.988;2024-02-21T05:16:22;11.00;99.90
14140;DHT22;7150;53.514;9.988;2024-02-21T05:18:47;11.00;99.90
14140;DHT22;7150;53.514;9.988;2024-02-21T05:21:13;10.90;99.90
14140;DHT22;7150;53.514;9.988;2024-02-21T05:23:38;10.90;99.90
14140;DHT22;7150;53.514;9.988;2024-02-21T05:26:05;10.90;99.90
14140;DHT22;7150;53.514;9.988;2024-02-21T05:28:31;10.90;99.90
14140;DHT22;7150;53.514;9.988;2024-02-21T05:30:56;10.90;99.90
14140;DHT22;7150;53.514;9.988;2024-02-21T05:33:22;10.90;99.90
14140;DHT22;7150;53.514;9.988;2024-02-21T05:35:48;10.90;99.90
14140;DHT22;7150;53.514;9.988;2024-02-21T05:38:14;10.80;99.90
14140;DHT22;7150;53.514;9.988;2024-02-21T05:40:40;10.90;99.90
14140;DHT22;7150;53.514;9.988;2024-02-21T05:43:06;10.80;99.90
14140;DHT22;7150;53.514;9.988;2024-02-21T05:45:32;10.80;99.90
14140;DHT22;7150;53.514;9.988;2024-02-21T05:47:57;10.80;99.90
14140;DHT22;7150;53.514;9.988;2024-02-21T05:50:23;10.80;99.90
14140;DHT22;7150;53.514;9.988;2024-02-21T05:52:51;10.80;99.90
14140;DHT22;7150;53.514;9.988;2024-02-21T05:55:17;10.80;99.90
14140;DHT22;7150;53.514;9.988;2024-02-21T05:57:42;10.80;99.90
14140;DHT22;7150;53.514;9.988;2024-02-21T06:00:08;10.80;99.90
14140;DHT22;7150;53.514;9.988;2024-02-21T06:02:33;10.80;99.90
14140;DHT22;7150;53.514;9.988;2024-02-21T06:04:59;10.80;99.90
14140;DHT22;7150;53.514;9.988;2024-02-21T06:07:25;10.80;99.90
14140;DHT22;7150;53.514;9.988;2024-02-21T06:09:50;10.80;99.90
14140;DHT22;7150;53.514;9.988;2024-02-21T06:12:15;10.80;99.90
14140;DHT22;7150;53.514;9.988;2024-02-21T06:14:41;10.80;99.90
14140;DHT22;7150;53.514;9.988;2024-02-21T06:17:06;10.80;99.90
14140;DHT22;7150;53.514;9.988;2024-02-21T06:19:32;10.80;99.90
14140;DHT22;7150;53.514;9.988;2024-02-21T06:21:57;10.80;99.90
14140;DHT22;7150;53.514;9.988;2024-02-21T06:24:23;10.80;99.90
14140;DHT22;7150;53.514;9.988;2024-02-21T06:26:48;10.80;99.90
14140;DHT22;7150;53.514;9.988;2024-02-21T06:29:14;10.80;99.90
14140;DHT22;7150;53.514;9.988;2024-02-21T06:31:40;10.80;99.90
14140;DHT22;7150;53.514;9.988;2024-02-21T06:34:06;10.80;99.90
14140;DHT22;7150;53.514;9.988;2024-02-21T06:36:31;10.80;99.90
14140;DHT22;7150;53.514;9.988;2024-02-21T06:38:58;10.80;99.90
14140;DHT22;7150;53.514;9.988;2024-02-21T06:41:23;10.80;99.90
14140;DHT22;7150;53.514;9.988;2024-02-21T06:43:49;10.80;99.90
14140;DHT22;7150;53.514;9.988;2024-02-21T06:46:28;10.80;99.90
14140;DHT22;7150;53.514;9.988;2024-02-21T06:48:54;10.80;99.90
14140;DHT22;7150;53.514;9.988;2024-02-21T06:51:22;10.80;99.90
14140;DHT22;7150;53.514;9.988;2024-02-21T06:53:47;10.80;99.90
14140;DHT22;7150;53.514;9.988;2024-02-21T06:56:13;10.80;99.90
14140;DHT22;7150;53.514;9.988;2024-02-21T06:58:38;10.80;99.90
14140;DHT22;7150;53.514;9.988;2024-02-21T07:01:04;10.80;99.90
14140;DHT22;7150;53.514;9.988;2024-02-21T07:03:29;10.80;99.90
14140;DHT22;7150;53.514;9.988;2024-02-21T07:05:55;10.80;99.90
14140;DHT22;7150;53.514;9.988;2024-02-21T07:08:20;10.80;99.90
14140;DHT22;7150;53.514;9.988;2024-02-21T07:10:46;10.80;99.90
14140;DHT22;7150;53.514;9.988;2024-02-21T07:13:12;10.80;99.90
14140;DHT22;7150;53.514;9.988;2024-02-21T07:15:38;10.80;99.90
14140;DHT22;7150;53.514;9.988;2024-02-21T07:18:04;10.80;99.90
14140;DHT22;7150;53.514;9.988;2024-02-21T07:20:29;10.80;99.90
14140;DHT22;7150;53.514;9.988;2024-02-21T07:22:55;10.80;99.90
14140;DHT22;7150;53.514;9.988;2024-02-21T07:25:20;10.80;99.90
14140;DHT22;7150;53.514;9.988;2024-02-21T07:27:46;10.90;99.90
14140;DHT22;7150;53.514;9.988;2024-02-21T07:30:12;10.90;99.90
14140;DHT22;7150;53.514;9.988;2024-02-21T07:32:37;11.00;99.90
14140;DHT22;7150;53.514;9.988;2024-02-21T07:35:03;11.00;99.90
14140;DHT22;7150;53.514;9.988;2024-02-21T07:37:29;11.00;99.90
14140;DHT22;7150;53.514;9.988;2024-02-21T07:39:54;11.00;99.90
14140;DHT22;7150;53.514;9.988;2024-02-21T07:42:19;11.00;99.90
14140;DHT22;7150;53.514;9.988;2024-02-21T07:44:45;11.00;99.90
14140;DHT22;7150;53.514;9.988;2024-02-21T07:47:11;11.00;99.90
14140;DHT22;7150;53.514;9.988;2024-02-21T07:49:44;11.00;99.90
14140;DHT22;7150;53.514;9.988;2024-02-21T07:52:10;11.10;99.90
14140;DHT22;7150;53.514;9.988;2024-02-21T07:54:35;11.10;99.90
14140;DHT22;7150;53.514;9.988;2024-02-21T07:57:01;11.10;99.90
14140;DHT22;7150;53.514;9.988;2024-02-21T07:59:26;11.10;99.90
14140;DHT22;7150;53.514;9.988;2024-02-21T08:01:52;11.10;99.90
14140;DHT22;7150;53.514;9.988;2024-02-21T08:04:20;11.10;99.90
14140;DHT22;7150;53.514;9.988;2024-02-21T08:06:51;11.10;99.90
14140;DHT22;7150;53.514;9.988;2024-02-21T08:09:18;11.10;99.90
14140;DHT22;7150;53.514;9.988;2024-02-21T08:11:44;11.20;99.90
14140;DHT22;7150;53.514;9.988;2024-02-21T08:14:09;11.10;99.90
14140;DHT22;7150;53.514;9.988;2024-02-21T08:16:35;11.10;99.90
14140;DHT22;7150;53.514;9.988;2024-02-21T08:19:00;11.10;99.90
14140;DHT22;7150;53.514;9.988;2024-02-21T08:21:28;11.10;99.90
14140;DHT22;7150;53.514;9.988;2024-02-21T08:23:55;11.10;99.90
14140;DHT22;7150;53.514;9.988;2024-02-21T08:26:20;11.10;99.90
14140;DHT22;7150;53.514;9.988;2024-02-21T08:28:46;11.20;99.90
14140;DHT22;7150;53.514;9.988;2024-02-21T08:31:18;11.20;99.90
14140;DHT22;7150;53.514;9.988;2024-02-21T08:33:44;11.20;99.90
14140;DHT22;7150;53.514;9.988;2024-02-21T08:36:16;11.20;99.90
14140;DHT22;7150;53.514;9.988;2024-02-21T08:38:42;11.30;99.90
14140;DHT22;7150;53.514;9.988;2024-02-21T08:41:07;11.30;99.90
14140;DHT22;7150;53.514;9.988;2024-02-21T08:43:33;11.40;99.90
14140;DHT22;7150;53.514;9.988;2024-02-21T08:46:00;11.40;99.90
14140;DHT22;7150;53.514;9.988;2024-02-21T08:48:25;11.30;99.90
14140;DHT22;7150;53.514;9.988;2024-02-21T08:50:51;11.30;99.90
14140;DHT22;7150;53.514;9.988;2024-02-21T08:53:16;11.20;99.90
14140;DHT22;7150;53.514;9.988;2024-02-21T08:55:42;11.20;99.90
14140;DHT22;7150;53.514;9.988;2024-02-21T08:58:09;11.20;99.90
14140;DHT22;7150;53.514;9.988;2024-02-21T09:00:35;11.20;99.90
14140;DHT22;7150;53.514;9.988;2024-02-21T09:03:00;11.20;99.90
14140;DHT22;7150;53.514;9.988;2024-02-21T09:05:26;11.20;99.90
14140;DHT22;7150;53.514;9.988;2024-02-21T09:07:51;11.30;99.90
14140;DHT22;7150;53.514;9.988;2024-02-21T09:10:17;11.30;99.90
14140;DHT22;7150;53.514;9.988;2024-02-21T09:12:42;11.30;99.90
14140;DHT22;7150;53.514;9.988;2024-02-21T09:15:09;11.30;99.90
14140;DHT22;7150;53.514;9.988;2024-02-21T09:17:35;11.30;99.90
14140;DHT22;7150;53.514;9.988;2024-02-21T09:20:01;11.30;99.90
14140;DHT22;7150;53.514;9.988;2024-02-21T09:22:29;11.30;99.90
14140;DHT22;7150;53.514;9.988;2024-02-21T09:24:54;11.30;99.90
14140;DHT22;7150;53.514;9.988;2024-02-21T09:27:20;11.30;99.90
14140;DHT22;7150;53.514;9.988;2024-02-21T09:29:45;11.30;99.90
14140;DHT22;7150;53.514;9.988;2024-02-21T09:32:11;11.30;99.90
14140;DHT22;7150;53.514;9.988;2024-02-21T09:34:36;11.30;99.90
14140;DHT22;7150;53.514;9.988;2024-02-21T09:37:02;11.30;99.90
14140;DHT22;7150;53.514;9.988;2024-02-21T09:39:27;11.30;99.90
14140;DHT22;7150;53.514;9.988;2024-02-21T09:41:59;11.30;99.90
14140;DHT22;7150;53.514;9.988;2024-02-21T09:44:27;11.40;99.90
14140;DHT22;7150;53.514;9.988;2024-02-21T09:47:02;11.40;99.90
14140;DHT22;7150;53.514;9.988;2024-02-21T09:49:32;11.40;99.90
14140;DHT22;7150;53.514;9.988;2024-02-21T09:52:02;11.50;99.90
14140;DHT22;7150;53.514;9.988;2024-02-21T09:54:28;11.50;99.90
14140;DHT22;7150;53.514;9.988;2024-02-21T09:56:55;11.50;99.90
14140;DHT22;7150;53.514;9.988;2024-02-21T09:59:22;11.50;99.90
14140;DHT22;7150;53.514;9.988;2024-02-21T10:01:49;11.50;99.90
14140;DHT22;7150;53.514;9.988;2024-02-21T10:04:15;11.60;99.90
14140;DHT22;7150;53.514;9.988;2024-02-21T10:06:41;11.50;99.90
14140;DHT22;7150;53.514;9.988;2024-02-21T10:09:07;11.50;99.90
14140;DHT22;7150;53.514;9.988;2024-02-21T10:11:32;11.50;99.90
14140;DHT22;7150;53.514;9.988;2024-02-21T10:14:06;11.40;99.90
14140;DHT22;7150;53.514;9.988;2024-02-21T10:16:31;11.60;99.90
14140;DHT22;7150;53.514;9.988;2024-02-21T10:18:57;11.60;99.90
14140;DHT22;7150;53.514;9.988;2024-02-21T10:21:22;11.50;99.90
14140;DHT22;7150;53.514;9.988;2024-02-21T10:23:49;11.50;99.90
14140;DHT22;7150;53.514;9.988;2024-02-21T10:26:16;11.60;99.90
14140;DHT22;7150;53.514;9.988;2024-02-21T10:28:42;11.60;99.90
14140;DHT22;7150;53.514;9.988;2024-02-21T10:31:10;11.60;99.90
14140;DHT22;7150;53.514;9.988;2024-02-21T10:33:37;11.60;99.90
14140;DHT22;7150;53.514;9.988;2024-02-21T10:36:07;11.60;99.90
14140;DHT22;7150;53.514;9.988;2024-02-21T10:38:33;11.60;99.90
14140;DHT22;7150;53.514;9.988;2024-02-21T10:40:59;11.60;99.90
14140;DHT22;7150;53.514;9.988;2024-02-21T10:43:32;11.70;99.90
14140;DHT22;7150;53.514;9.988;2024-02-21T10:46:00;11.70;99.90
14140;DHT22;7150;53.514;9.988;2024-02-21T10:48:36;11.70;99.90
14140;DHT22;7150;53.514;9.988;2024-02-21T10:51:15;11.70;99.90
14140;DHT22;7150;53.514;9.988;2024-02-21T10:54:29;11.80;99.90
14140;DHT22;7150;53.514;9.988;2024-02-21T10:56:50;11.80;99.90
14140;DHT22;7150;53.514;9.988;2024-02-21T10:59:17;11.80;99.90
14140;DHT22;7150;53.514;9.988;2024-02-21T11:01:43;11.80;99.90
14140;DHT22;7150;53.514;9.988;2024-02-21T11:04:09;11.80;99.90
14140;DHT22;7150;53.514;9.988;2024-02-21T11:06:38;11.80;99.90
14140;DHT22;7150;53.514;9.988;2024-02-21T11:09:09;11.80;99.90
14140;DHT22;7150;53.514;9.988;2024-02-21T11:11:35;11.80;99.90
14140;DHT22;7150;53.514;9.988;2024-02-21T11:14:18;11.90;99.90
14140;DHT22;7150;53.514;9.988;2024-02-21T11:16:44;11.90;99.90
14140;DHT22;7150;53.514;9.988;2024-02-21T11:19:20;11.90;99.90
14140;DHT22;7150;53.514;9.988;2024-02-21T11:21:46;11.90;99.90
14140;DHT22;7150;53.514;9.988;2024-02-21T11:24:13;11.90;99.90
14140;DHT22;7150;53.514;9.988;2024-02-21T11:26:40;11.90;99.90
14140;DHT22;7150;53.514;9.988;2024-02-21T11:29:07;11.90;99.90
14140;DHT22;7150;53.514;9.988;2024-02-21T11:31:42;11.90;99.90
14140;DHT22;7150;53.514;9.988;2024-02-21T11:34:09;12.00;99.90
14140;DHT22;7150;53.514;9.988;2024-02-21T11:36:36;11.90;99.90
14140;DHT22;7150;53.514;9.988;2024-02-21T11:39:05;12.00;99.90
14140;DHT22;7150;53.514;9.988;2024-02-21T11:41:31;12.00;99.90
14140;DHT22;7150;53.514;9.988;2024-02-21T11:43:56;12.00;99.90
14140;DHT22;7150;53.514;9.988;2024-02-21T11:46:22;11.90;99.90
14140;DHT22;7150;53.514;9.988;2024-02-21T11:48:48;12.00;99.90
14140;DHT22;7150;53.514;9.988;2024-02-21T11:51:24;11.90;99.90
14140;DHT22;7150;53.514;9.988;2024-02-21T11:53:52;12.00;99.90
14140;DHT22;7150;53.514;9.988;2024-02-21T11:56:18;11.90;99.90
14140;DHT22;7150;53.514;9.988;2024-02-21T11:58:46;11.90;99.90
14140;DHT22;7150;53.514;9.988;2024-02-21T12:01:11;11.90;99.90
14140;DHT22;7150;53.514;9.988;2024-02-21T12:03:37;11.90;99.90
14140;DHT22;7150;53.514;9.988;2024-02-21T12:06:03;12.00;99.90
14140;DHT22;7150;53.514;9.988;2024-02-21T12:08:41;11.90;99.90
14140;DHT22;7150;53.514;9.988;2024-02-21T12:11:22;12.00;99.90
14140;DHT22;7150;53.514;9.988;2024-02-21T12:13:59;11.90;99.90
14140;DHT22;7150;53.514;9.988;2024-02-21T12:16:27;11.90;99.90
14140;DHT22;7150;53.514;9.988;2024-02-21T12:18:53;11.90;99.90
14140;DHT22;7150;53.514;9.988;2024-02-21T12:21:19;11.90;99.90
14140;DHT22;7150;53.514;9.988;2024-02-21T12:23:44;11.90;99.90
14140;DHT22;7150;53.514;9.988;2024-02-21T12:26:12;11.90;99.90
14140;DHT22;7150;53.514;9.988;2024-02-21T12:28:37;11.90;99.90
14140;DHT22;7150;53.514;9.988;2024-02-21T12:31:03;11.90;99.90
14140;DHT22;7150;53.514;9.988;2024-02-21T12:33:29;11.90;99.90
14140;DHT22;7150;53.514;9.988;2024-02-21T12:35:55;11.90;99.90
14140;DHT22;7150;53.514;9.988;2024-02-21T12:38:20;11.90;99.90
14140;DHT22;7150;53.514;9.988;2024-02-21T12:40:46;11.90;99.90
14140;DHT22;7150;53.514;9.988;2024-02-21T12:43:11;11.90;99.90
14140;DHT22;7150;53.514;9.988;2024-02-21T12:45:37;11.90;99.90
14140;DHT22;7150;53.514;9.988;2024-02-21T12:48:02;11.90;99.90
14140;DHT22;7150;53.514;9.988;2024-02-21T12:50:29;11.90;99.90
14140;DHT22;7150;53.514;9.988;2024-02-21T12:52:56;12.00;99.90
14140;DHT22;7150;53.514;9.988;2024-02-21T12:55:23;12.00;99.90
14140;DHT22;7150;53.514;9.988;2024-02-21T12:57:49;12.00;99.90
14140;DHT22;7150;53.514;9.988;2024-02-21T13:00:15;11.90;99.90
14140;DHT22;7150;53.514;9.988;2024-02-21T13:02:40;12.00;99.90
14140;DHT22;7150;53.514;9.988;2024-02-21T13:05:06;12.00;99.90
14140;DHT22;7150;53.514;9.988;2024-02-21T13:07:33;12.00;99.90
14140;DHT22;7150;53.514;9.988;2024-02-21T13:09:58;12.00;99.90
14140;DHT22;7150;53.514;9.988;2024-02-21T13:12:24;12.00;99.90
14140;DHT22;7150;53.514;9.988;2024-02-21T13:14:51;12.10;99.90
14140;DHT22;7150;53.514;9.988;2024-02-21T13:17:17;12.10;99.90
14140;DHT22;7150;53.514;9.988;2024-02-21T13:19:42;12.10;99.90
14140;DHT22;7150;53.514;9.988;2024-02-21T13:22:08;12.20;99.90
14140;DHT22;7150;53.514;9.988;2024-02-21T13:24:34;12.10;99.90
14140;DHT22;7150;53.514;9.988;2024-02-21T13:26:59;12.20;99.90
14140;DHT22;7150;53.514;9.988;2024-02-21T13:29:25;12.20;99.90
14140;DHT22;7150;53.514;9.988;2024-02-21T13:31:50;12.20;99.90
14140;DHT22;7150;53.514;9.988;2024-02-21T13:34:16;12.30;99.90
14140;DHT22;7150;53.514;9.988;2024-02-21T13:36:42;12.30;99.90
14140;DHT22;7150;53.514;9.988;2024-02-21T13:39:08;12.30;99.90
14140;DHT22;7150;53.514;9.988;2024-02-21T13:41:34;12.20;99.90
14140;DHT22;7150;53.514;9.988;2024-02-21T13:44:00;12.30;99.90
14140;DHT22;7150;53.514;9.988;2024-02-21T13:46:29;12.30;99.90
14140;DHT22;7150;53.514;9.988;2024-02-21T13:49:03;12.30;99.90
14140;DHT22;7150;53.514;9.988;2024-02-21T13:51:33;12.30;99.90
14140;DHT22;7150;53.514;9.988;2024-02-21T13:53:58;12.40;99.90
14140;DHT22;7150;53.514;9.988;2024-02-21T13:56:24;12.30;99.90
14140;DHT22;7150;53.514;9.988;2024-02-21T13:58:50;12.40;99.90
14140;DHT22;7150;53.514;9.988;2024-02-21T14:01:16;12.40;99.90
14140;DHT22;7150;53.514;9.988;2024-02-21T14:03:41;12.40;99.90
14140;DHT22;7150;53.514;9.988;2024-02-21T14:06:07;12.40;99.90
14140;DHT22;7150;53.514;9.988;2024-02-21T14:08:32;12.40;99.90
14140;DHT22;7150;53.514;9.988;2024-02-21T14:10:59;12.40;99.90
14140;DHT22;7150;53.514;9.988;2024-02-21T14:13:25;12.40;99.90
14140;DHT22;7150;53.514;9.988;2024-02-21T14:15:51;12.40;99.90
14140;DHT22;7150;53.514;9.988;2024-02-21T14:18:16;12.50;99.90
14140;DHT22;7150;53.514;9.988;2024-02-21T14:20:42;12.50;99.90
14140;DHT22;7150;53.514;9.988;2024-02-21T14:23:08;12.50;99.90
14140;DHT22;7150;53.514;9.988;2024-02-21T14:25:34;12.60;99.90
14140;DHT22;7150;53.514;9.988;2024-02-21T14:27:59;12.50;99.90
14140;DHT22;7150;53.514;9.988;2024-02-21T14:30:27;12.60;99.90
14140;DHT22;7150;53.514;9.988;2024-02-21T14:32:53;12.60;99.90
14140;DHT22;7150;53.514;9.988;2024-02-21T14:35:18;12.70;99.90
14140;DHT22;7150;53.514;9.988;2024-02-21T14:37:44;12.70;99.90
14140;DHT22;7150;53.514;9.988;2024-02-21T14:40:11;12.70;99.90
14140;DHT22;7150;53.514;9.988;2024-02-21T14:42:37;12.70;99.90
14140;DHT22;7150;53.514;9.988;2024-02-21T14:45:02;12.80;99.90
14140;DHT22;7150;53.514;9.988;2024-02-21T14:47:32;12.80;99.90
14140;DHT22;7150;53.514;9.988;2024-02-21T14:49:57;12.80;99.90
14140;DHT22;7150;53.514;9.988;2024-02-21T14:52:23;12.80;99.90
14140;DHT22;7150;53.514;9.988;2024-02-21T14:54:50;12.80;99.90
14140;DHT22;7150;53.514;9.988;2024-02-21T14:57:17;12.80;99.90
14140;DHT22;7150;53.514;9.988;2024-02-21T14:59:43;12.70;99.90
14140;DHT22;7150;53.514;9.988;2024-02-21T15:02:08;12.70;99.90
14140;DHT22;7150;53.514;9.988;2024-02-21T15:04:35;12.70;99.90
14140;DHT22;7150;53.514;9.988;2024-02-21T15:07:01;12.70;99.90
14140;DHT22;7150;53.514;9.988;2024-02-21T15:09:27;12.70;99.90
14140;DHT22;7150;53.514;9.988;2024-02-21T15:11:53;12.70;99.90
14140;DHT22;7150;53.514;9.988;2024-02-21T15:14:19;12.70;99.90
14140;DHT22;7150;53.514;9.988;2024-02-21T15:16:45;12.70;99.90
14140;DHT22;7150;53.514;9.988;2024-02-21T15:19:11;12.70;99.90
14140;DHT22;7150;53.514;9.988;2024-02-21T15:21:36;12.70;99.90
14140;DHT22;7150;53.514;9.988;2024-02-21T15:24:02;12.70;99.90
14140;DHT22;7150;53.514;9.988;2024-02-21T15:26:29;12.70;99.90
14140;DHT22;7150;53.514;9.988;2024-02-21T15:28:55;12.70;99.90
14140;DHT22;7150;53.514;9.988;2024-02-21T15:31:24;12.70;99.90
14140;DHT22;7150;53.514;9.988;2024-02-21T15:33:51;12.80;99.90
14140;DHT22;7150;53.514;9.988;2024-02-21T15:36:17;12.70;99.90
14140;DHT22;7150;53.514;9.988;2024-02-21T15:38:43;12.70;99.90